Time;durP1;ratioP1;P1;durP2;ratioP2;P2;SDS_P1;SDS_P2;PMS_P1;PMS_P2;Temp;Humidity;BMP_temperature;BMP_pressure;BME280_temperature;BME280_humidity;BME280_pressure;Samples;Min_cycle;Max_cycle;Signal;HPM_P1;HPM_P2
2022/09/08 00:01:36;;;;;;;11.43;1.60;;;;;;;15.26;100.00;99746.66;5044251;28;20048;-70
2022/09/08 00:04:02;;;;;;;14.57;2.05;;;;;;;15.25;100.00;99745.03;5060691;28;20032;-70
2022/09/08 00:06:32;;;;;;;11.27;1.92;;;;;;;15.26;100.00;99747.47;5060803;28;20024;-70
2022/09/08 00:08:58;;;;;;;10.65;1.85;;;;;;;15.23;100.00;99753.75;5060824;28;20070;-70
2022/09/08 00:11:26;;;;;;;13.73;1.88;;;;;;;15.26;100.00;99747.47;5054054;28;20078;-70
2022/09/08 00:13:52;;;;;;;10.32;1.73;;;;;;;15.24;100.00;99749.81;5054518;28;20032;-70
2022/09/08 00:16:18;;;;;;;12.48;1.95;;;;;;;15.24;100.00;99741.44;5060837;28;20511;-70
2022/09/08 00:18:44;;;;;;;11.48;1.80;;;;;;;15.22;100.00;99738.16;5077323;28;20429;-70
2022/09/08 00:21:09;;;;;;;14.85;2.20;;;;;;;15.24;100.00;99733.03;5043971;28;20149;-70
2022/09/08 00:23:35;;;;;;;12.35;1.98;;;;;;;15.25;99.96;99731.88;5077337;28;20523;-70
2022/09/08 00:26:00;;;;;;;10.70;1.50;;;;;;;15.24;100.00;99729.41;5037579;28;20044;-70
2022/09/08 00:28:26;;;;;;;16.58;1.80;;;;;;;15.23;100.00;99725.78;5059326;28;20031;-70
2022/09/08 00:30:51;;;;;;;11.73;1.70;;;;;;;15.22;100.00;99729.75;5060721;28;20032;-70
2022/09/08 00:33:16;;;;;;;9.45;1.60;;;;;;;15.16;99.12;99728.34;5027647;28;20564;-70
2022/09/08 00:35:43;;;;;;;8.98;1.60;;;;;;;15.17;100.00;99721.56;5062633;28;20060;-70
2022/09/08 00:38:08;;;;;;;10.20;1.75;;;;;;;15.17;99.85;99713.19;5042720;28;20048;-70
2022/09/08 00:40:40;;;;;;;11.77;2.03;;;;;;;15.11;100.00;99725.75;5047158;28;20070;-70
2022/09/08 00:43:05;;;;;;;8.50;1.67;;;;;;;15.13;99.95;99720.66;5075589;28;20097;-70
2022/09/08 00:45:33;;;;;;;9.40;2.13;;;;;;;15.08;100.00;99727.25;5099397;28;20480;-70
2022/09/08 00:48:01;;;;;;;12.50;1.65;;;;;;;15.08;99.75;99720.84;5078077;28;20028;-70
2022/09/08 00:50:27;;;;;;;15.23;1.85;;;;;;;15.02;100.00;99725.03;5044765;28;20031;-70
2022/09/08 00:53:00;;;;;;;9.32;1.83;;;;;;;15.01;100.00;99724.19;5080882;28;20083;-70
2022/09/08 00:55:31;;;;;;;12.77;1.75;;;;;;;14.97;100.00;99724.06;5047178;28;20044;-70
2022/09/08 00:57:57;;;;;;;9.80;2.17;;;;;;;15.00;100.00;99716.97;5039315;28;20028;-70
2022/09/08 01:00:22;;;;;;;14.68;2.28;;;;;;;15.02;100.00;99725.03;5045098;28;20047;-70
2022/09/08 01:02:48;;;;;;;12.27;1.75;;;;;;;14.99;100.00;99723.72;5062122;28;20028;-70
2022/09/08 01:05:15;;;;;;;13.00;2.00;;;;;;;15.00;100.00;99716.16;5064273;28;20024;-70
2022/09/08 01:13:44;;;;;;;16.48;2.35;;;;;;;15.02;100.00;99713.84;5098252;28;20103;-70
2022/09/08 01:16:10;;;;;;;9.27;1.67;;;;;;;15.02;100.00;99702.66;5061393;28;20187;-70
2022/09/08 01:18:35;;;;;;;13.43;2.17;;;;;;;15.05;100.00;99713.97;5080444;28;20102;-70
2022/09/08 01:21:13;;;;;;;6.30;1.60;;;;;;;15.04;100.00;99700.31;5063209;28;20111;-70
2022/09/08 01:24:13;;;;;;;15.07;2.20;;;;;;;15.05;100.00;99699.16;5063435;28;20115;-70
2022/09/08 01:27:06;;;;;;;18.65;2.00;;;;;;;15.05;100.00;99694.38;5080233;28;20035;-70
2022/09/08 01:29:32;;;;;;;11.52;2.35;;;;;;;15.09;100.00;99686.94;5038791;28;20036;-70
2022/09/08 01:31:57;;;;;;;12.75;1.77;;;;;;;15.08;100.00;99690.09;5078085;28;20477;-70
2022/09/08 01:34:23;;;;;;;16.25;2.60;;;;;;;15.10;100.00;99682.16;5061793;28;20031;-70
2022/09/08 01:36:48;;;;;;;10.98;2.00;;;;;;;15.10;100.00;99693.34;5061097;28;20482;-70
2022/09/08 01:39:14;;;;;;;13.52;2.08;;;;;;;15.10;100.00;99682.16;5063416;28;20511;-70
2022/09/08 01:41:39;;;;;;;13.40;2.33;;;;;;;15.10;100.00;99677.41;5046627;28;20028;-70
2022/09/08 01:44:05;;;;;;;15.05;2.30;;;;;;;15.11;100.00;99681.81;5060846;28;20016;-70
2022/09/08 01:46:30;;;;;;;13.43;2.33;;;;;;;15.09;100.00;99672.94;5060988;28;20032;-70
2022/09/08 01:48:56;;;;;;;14.15;2.50;;;;;;;15.08;100.00;99664.94;5063259;28;20039;-70
2022/09/08 01:51:22;;;;;;;13.27;2.10;;;;;;;15.08;100.00;99679.72;5045106;28;20028;-70
2022/09/08 01:53:47;;;;;;;11.63;2.13;;;;;;;15.09;100.00;99678.53;5029281;28;20031;-70
2022/09/08 01:56:13;;;;;;;12.90;2.13;;;;;;;15.13;100.00;99670.31;5062648;28;20024;-70
2022/09/08 01:58:38;;;;;;;15.45;2.20;;;;;;;15.13;100.00;99684.28;5059705;28;20485;-70
2022/09/08 02:01:04;;;;;;;16.33;2.38;;;;;;;15.14;100.00;99675.53;5060255;28;20033;-70
2022/09/08 02:03:30;;;;;;;15.75;2.60;;;;;;;15.13;100.00;99687.09;5079833;28;20032;-70
2022/09/08 02:05:58;;;;;;;15.90;2.63;;;;;;;15.12;100.00;99683.44;5061975;28;20024;-70
2022/09/08 02:08:24;;;;;;;11.65;2.50;;;;;;;15.09;100.00;99694.50;5028745;28;20032;-70
2022/09/08 02:10:57;;;;;;;16.67;2.63;;;;;;;15.11;100.00;99695.00;5041784;28;20036;-70
2022/09/08 02:13:22;;;;;;;12.20;2.13;;;;;;;15.07;100.00;99697.66;5057497;28;20029;-70
2022/09/08 02:15:48;;;;;;;15.35;2.45;;;;;;;15.09;100.00;99688.91;5097615;28;20491;-70
2022/09/08 02:18:14;;;;;;;11.30;2.00;;;;;;;15.09;100.00;99695.31;5061973;28;20434;-70
2022/09/08 02:20:39;;;;;;;18.00;2.30;;;;;;;15.08;100.00;99695.69;5058800;28;20473;-70
2022/09/08 02:23:04;;;;;;;13.52;2.00;;;;;;;15.08;100.00;99695.69;5058277;28;20035;-70
2022/09/08 02:25:30;;;;;;;15.80;2.72;;;;;;;15.10;100.00;99685.78;5062146;28;20024;-70
2022/09/08 02:27:55;;;;;;;14.55;2.10;;;;;;;15.06;100.00;99678.44;5045966;28;20020;-70
2022/09/08 02:30:22;;;;;;;19.17;2.55;;;;;;;15.05;100.00;99669.22;5072650;28;20024;-70
2022/09/08 02:32:49;;;;;;;18.23;2.17;;;;;;;15.09;100.00;99672.94;5044111;28;20089;-70
2022/09/08 02:35:15;;;;;;;13.82;2.13;;;;;;;15.10;100.00;99679.34;5040810;28;20088;-70
2022/09/08 02:37:40;;;;;;;13.05;2.00;;;;;;;15.11;100.00;99672.63;5043215;28;20561;-70
2022/09/08 02:40:07;;;;;;;15.30;2.22;;;;;;;15.14;100.00;99669.94;5050013;28;20025;-70
2022/09/08 02:42:32;;;;;;;12.27;2.20;;;;;;;15.12;100.00;99668.66;5059093;28;20056;-70
2022/09/08 02:44:58;;;;;;;12.70;2.15;;;;;;;15.13;100.00;99659.13;5078819;28;20036;-70
2022/09/08 02:47:23;;;;;;;16.45;2.58;;;;;;;15.12;100.00;99663.06;5029179;28;20043;-70
2022/09/08 02:49:48;;;;;;;14.30;2.33;;;;;;;15.15;100.00;99663.19;5061219;28;20024;-71
2022/09/08 02:52:14;;;;;;;13.77;2.13;;;;;;;15.15;100.00;99646.41;5058576;28;20496;-70
2022/09/08 02:54:40;;;;;;;11.75;2.67;;;;;;;15.15;100.00;99640.81;5078280;28;20032;-70
2022/09/08 02:57:05;;;;;;;16.83;2.25;;;;;;;15.15;100.00;99637.19;5027730;28;20081;-71
2022/09/08 02:59:31;;;;;;;15.25;2.38;;;;;;;15.16;100.00;99644.44;5028656;28;20063;-71
2022/09/08 03:01:58;;;;;;;15.32;2.28;;;;;;;15.17;100.00;99640.47;5054246;28;20043;-70
2022/09/08 03:04:24;;;;;;;15.70;3.00;;;;;;;15.17;100.00;99638.47;5044731;28;20024;-71
2022/09/08 03:06:50;;;;;;;16.27;2.60;;;;;;;15.18;100.00;99650.47;5054753;28;20040;-70
2022/09/08 03:09:15;;;;;;;11.82;2.08;;;;;;;15.18;100.00;99654.13;5027340;28;20020;-71
2022/09/08 03:11:40;;;;;;;15.32;2.50;;;;;;;15.16;100.00;99648.06;5061599;28;20028;-70
2022/09/08 03:14:06;;;;;;;15.13;2.80;;;;;;;15.18;100.00;99661.66;5061588;28;20024;-70
2022/09/08 03:16:31;;;;;;;14.15;2.22;;;;;;;15.23;100.00;99660.66;5061578;28;20513;-70
2022/09/08 03:18:57;;;;;;;20.17;2.85;;;;;;;15.25;100.00;99661.94;5061275;28;20078;-70
2022/09/08 03:21:22;;;;;;;19.63;3.00;;;;;;;15.23;100.00;99667.06;5078301;28;20036;-70
2022/09/08 03:23:48;;;;;;;14.43;2.28;;;;;;;15.24;100.00;99665.06;5096166;28;20035;-70
2022/09/08 03:26:18;;;;;;;15.25;2.42;;;;;;;15.24;100.00;99667.88;5060996;28;20122;-70
2022/09/08 03:28:44;;;;;;;16.25;2.55;;;;;;;15.24;100.00;99659.47;5052116;28;20036;-70
2022/09/08 03:31:11;;;;;;;19.75;3.00;;;;;;;15.25;100.00;99650.75;5041429;28;20670;-71
2022/09/08 03:33:37;;;;;;;18.58;2.80;;;;;;;15.24;100.00;99657.50;5053788;28;20036;-71
2022/09/08 03:36:03;;;;;;;14.40;2.38;;;;;;;15.22;100.00;99659.03;5040844;28;20028;-70
2022/09/08 03:38:29;;;;;;;17.92;2.67;;;;;;;15.23;100.00;99658.66;5020160;28;20030;-70
2022/09/08 03:40:54;;;;;;;13.93;2.60;;;;;;;15.25;100.00;99650.75;5095986;28;20091;-70
2022/09/08 03:43:19;;;;;;;21.70;2.88;;;;;;;15.22;100.00;99656.22;5060477;28;20052;-70
2022/09/08 03:45:45;;;;;;;13.50;2.60;;;;;;;15.21;100.00;99649.81;5044466;28;20039;-70
2022/09/08 03:48:11;;;;;;;17.30;2.35;;;;;;;15.20;100.00;99653.75;5057196;28;20033;-71
2022/09/08 03:50:37;;;;;;;15.90;3.03;;;;;;;15.21;100.00;99661.00;5041792;28;20025;-70
2022/09/08 03:53:02;;;;;;;15.63;3.10;;;;;;;15.21;100.00;99661.00;5041789;28;20029;-70
2022/09/08 03:55:28;;;;;;;14.93;2.20;;;;;;;15.20;100.00;99659.34;5042558;28;20035;-70
2022/09/08 03:57:53;;;;;;;14.77;1.88;;;;;;;15.25;100.00;99666.72;5077637;28;20086;-70
2022/09/08 04:00:19;;;;;;;16.65;2.70;;;;;;;15.20;100.00;99664.94;5044204;28;20044;-70
2022/09/08 04:02:44;;;;;;;17.52;2.47;;;;;;;15.24;100.00;99665.06;5095761;28;20031;-70
2022/09/08 04:05:10;;;;;;;12.40;2.28;;;;;;;15.22;100.00;99671.03;5057518;28;20381;-70
2022/09/08 04:07:37;;;;;;;12.93;2.58;;;;;;;15.23;100.00;99680.22;5077682;28;20039;-70
2022/09/08 04:10:03;;;;;;;11.48;2.05;;;;;;;15.24;100.00;99670.66;5060550;28;20096;-70
2022/09/08 04:12:28;;;;;;;12.00;2.03;;;;;;;15.23;100.00;99680.22;5041253;28;20062;-70
2022/09/08 04:14:54;;;;;;;13.48;2.50;;;;;;;15.22;100.00;99676.63;5025470;28;20157;-70
2022/09/08 04:17:20;;;;;;;10.65;1.70;;;;;;;15.23;100.00;99685.81;5063420;28;20031;-70
2022/09/08 04:19:46;;;;;;;10.88;2.28;;;;;;;15.24;100.00;99681.84;5039503;28;20064;-70
2022/09/08 04:22:12;;;;;;;16.58;2.20;;;;;;;15.26;100.00;99673.94;5039850;28;20029;-70
2022/09/08 04:24:37;;;;;;;9.82;1.92;;;;;;;15.22;100.00;99682.22;5054539;28;20035;-70
2022/09/08 04:27:03;;;;;;;10.55;2.08;;;;;;;15.28;100.00;99686.41;5069858;28;20028;-70
2022/09/08 04:29:28;;;;;;;11.85;2.00;;;;;;;15.25;100.00;99675.91;5062157;28;20392;-70
2022/09/08 04:31:54;;;;;;;12.43;1.95;;;;;;;15.24;100.00;99679.06;5043955;28;20528;-70
2022/09/08 04:34:19;;;;;;;12.38;2.03;;;;;;;15.26;100.00;99679.53;5081336;28;20039;-70
2022/09/08 04:36:45;;;;;;;11.75;2.08;;;;;;;15.24;100.00;99682.69;5081427;28;20035;-70
2022/09/08 04:39:10;;;;;;;10.32;1.90;;;;;;;15.21;100.00;99688.97;5062436;28;20036;-70
2022/09/08 04:41:36;;;;;;;13.25;2.13;;;;;;;15.24;100.00;99699.47;5080981;28;20661;-70
2022/09/08 04:44:03;;;;;;;10.18;1.67;;;;;;;15.23;100.00;99695.03;5047022;28;20043;-70
2022/09/08 04:46:29;;;;;;;8.95;2.17;;;;;;;15.22;100.00;99692.59;5064913;28;20468;-70
2022/09/08 04:48:55;;;;;;;14.98;2.13;;;;;;;15.22;100.00;99696.19;5047818;28;20034;-70
2022/09/08 04:51:21;;;;;;;10.10;2.05;;;;;;;15.20;100.00;99695.72;5058641;28;20492;-71
2022/09/08 04:53:47;;;;;;;12.70;2.05;;;;;;;15.19;100.00;99694.09;5057078;28;20109;-70
2022/09/08 04:56:12;;;;;;;10.65;1.75;;;;;;;15.19;100.00;99696.88;5050423;28;20025;-70
2022/09/08 04:58:39;;;;;;;8.85;1.98;;;;;;;15.23;100.00;99706.22;5063590;28;20058;-70
2022/09/08 05:01:08;;;;;;;11.23;1.80;;;;;;;15.19;100.00;99705.28;5053916;28;20109;-70
2022/09/08 05:03:34;;;;;;;10.85;1.90;;;;;;;15.18;100.00;99706.41;5043940;28;20033;-70
2022/09/08 05:06:04;;;;;;;11.93;1.98;;;;;;;15.17;100.00;99710.38;5028466;28;20108;-70
2022/09/08 05:08:29;;;;;;;11.02;2.08;;;;;;;15.17;100.00;99721.56;5046495;28;20082;-70
2022/09/08 05:10:55;;;;;;;12.85;1.95;;;;;;;15.16;100.00;99717.16;5063601;28;20107;-70
2022/09/08 05:13:20;;;;;;;8.43;1.70;;;;;;;15.15;100.00;99721.09;5076526;28;20040;-70
2022/09/08 05:15:46;;;;;;;11.95;1.95;;;;;;;15.13;100.00;99724.25;5080021;28;20035;-70
2022/09/08 05:18:11;;;;;;;11.45;1.73;;;;;;;15.10;100.00;99718.50;5058544;28;20025;-71
2022/09/08 05:20:37;;;;;;;14.20;2.17;;;;;;;15.10;100.00;99718.50;5059406;28;20030;-70
2022/09/08 05:23:02;;;;;;;13.35;2.03;;;;;;;15.10;100.00;99726.91;5039531;28;20435;-70
2022/09/08 05:25:28;;;;;;;12.27;1.63;;;;;;;15.10;100.00;99715.72;5068902;28;20031;-70
2022/09/08 05:27:53;;;;;;;10.70;1.95;;;;;;;15.10;100.00;99718.50;5045993;28;20020;-70
2022/09/08 05:30:19;;;;;;;12.00;1.95;;;;;;;15.13;100.00;99715.06;5046704;28;20032;-70
2022/09/08 05:32:44;;;;;;;12.55;1.75;;;;;;;15.09;100.00;99719.69;5063565;28;20035;-70
2022/09/08 05:35:10;;;;;;;7.97;1.73;;;;;;;15.05;100.00;99715.94;5080023;28;20396;-70
2022/09/08 05:37:35;;;;;;;14.00;2.30;;;;;;;15.01;100.00;99726.97;5080433;28;20035;-67
2022/09/08 05:40:01;;;;;;;11.52;2.10;;;;;;;14.97;100.00;99731.63;5098434;28;20032;-67
2022/09/08 05:42:27;;;;;;;13.80;2.03;;;;;;;14.91;100.00;99728.22;5046813;28;20035;-67
2022/09/08 05:44:53;;;;;;;11.93;1.92;;;;;;;14.88;100.00;99726.13;5043276;28;20021;-67
2022/09/08 05:47:18;;;;;;;7.45;1.50;;;;;;;14.91;100.00;99724.63;5079943;28;20024;-67
2022/09/08 05:49:45;;;;;;;14.00;2.53;;;;;;;14.87;100.00;99730.06;5058736;28;20094;-67
2022/09/08 05:52:11;;;;;;;11.45;1.90;;;;;;;14.90;100.00;99731.34;5046567;28;20043;-67
2022/09/08 05:54:37;;;;;;;9.65;1.90;;;;;;;14.83;100.00;99734.72;5073934;28;20036;-67
2022/09/08 05:57:02;;;;;;;12.65;1.92;;;;;;;14.84;100.00;99732.72;5042591;28;20043;-67
2022/09/08 05:59:28;;;;;;;11.40;1.98;;;;;;;14.86;100.00;99741.59;5059128;28;20401;-67
2022/09/08 06:01:53;;;;;;;11.15;2.30;;;;;;;14.84;100.00;99730.75;5062450;28;20036;-67
2022/09/08 06:04:19;;;;;;;18.13;2.40;;;;;;;14.78;100.00;99734.09;5079545;28;20028;-67
2022/09/08 06:06:44;;;;;;;15.80;2.15;;;;;;;14.77;100.00;99741.69;5097891;28;20032;-71
2022/09/08 06:09:12;;;;;;;12.20;1.85;;;;;;;14.74;100.00;99743.16;5045149;28;20059;-70
2022/09/08 06:11:38;;;;;;;13.35;1.88;;;;;;;14.77;100.00;99738.06;5040960;28;20057;-70
2022/09/08 06:14:05;;;;;;;12.85;2.30;;;;;;;14.79;100.00;99742.13;5097408;28;20028;-70
2022/09/08 06:16:31;;;;;;;8.50;1.48;;;;;;;14.82;100.00;99740.63;5077179;28;20038;-70
2022/09/08 06:18:57;;;;;;;8.68;1.98;;;;;;;14.83;100.00;99740.31;5046706;28;20028;-70
2022/09/08 06:21:24;;;;;;;14.40;2.20;;;;;;;14.87;100.00;99735.66;5057591;28;20029;-70
2022/09/08 06:23:51;;;;;;;11.50;2.13;;;;;;;14.91;100.00;99745.00;5033848;28;20369;-71
2022/09/08 06:26:38;;;;;;;16.65;2.50;;;;;;;14.97;100.00;99749.22;5029351;28;20020;-71
2022/09/08 06:29:39;;;;;;;13.10;2.30;;;;;;;15.05;100.00;99746.72;5094906;28;20028;-71
2022/09/08 06:32:31;;;;;;;10.93;1.95;;;;;;;15.14;100.00;99755.81;5077348;28;20641;-71
2022/09/08 06:35:05;;;;;;;8.95;1.98;;;;;;;15.23;100.00;99756.56;5079840;28;20036;-71
2022/09/08 06:37:34;;;;;;;13.50;2.20;;;;;;;15.32;100.00;99753.66;5029817;28;20040;-71
2022/09/08 06:40:22;;;;;;;14.80;2.33;;;;;;;15.41;100.00;99749.63;5077758;28;20028;-71
2022/09/08 06:43:19;;;;;;;18.02;2.78;;;;;;;15.54;100.00;99763.66;5047494;28;20448;-71
2022/09/08 06:45:46;;;;;;;15.80;2.35;;;;;;;15.64;100.00;99750.03;5097019;28;20032;-71
2022/09/08 06:48:15;;;;;;;18.35;2.50;;;;;;;15.76;100.00;99746.47;5057902;28;20032;-71
2022/09/08 06:50:55;;;;;;;18.67;2.47;;;;;;;15.88;100.00;99756.06;5095800;28;20040;-71
2022/09/08 06:53:24;;;;;;;12.85;2.53;;;;;;;15.98;100.00;99762.03;5074166;28;20036;-71
2022/09/08 06:55:56;;;;;;;17.90;3.00;;;;;;;16.08;100.00;99761.56;5061258;28;20039;-72
2022/09/08 06:58:29;;;;;;;13.52;2.40;;;;;;;16.19;100.00;99767.53;5061730;28;20048;-71
2022/09/08 07:01:03;;;;;;;;;;;;;;;16.33;100.00;99755.97;5058046;28;20111;-71
2022/09/08 07:03:48;;;;;;;14.15;2.83;;;;;;;16.47;100.00;99761.22;5078526;28;19922;-71
2022/09/08 07:06:15;;;;;;;12.45;2.15;;;;;;;16.61;100.00;99761.66;5058037;28;20503;-71
2022/09/08 07:09:01;;;;;;;16.98;2.63;;;;;;;16.72;100.00;99765.63;5061105;28;21242;-71
2022/09/08 07:11:41;;;;;;;13.45;2.70;;;;;;;16.84;100.00;99759.19;5074565;28;20089;-71
2022/09/08 07:14:33;;;;;;;13.20;2.20;;;;;;;16.96;100.00;99761.94;5061046;28;20032;-72
2022/09/08 07:17:00;;;;;;;16.85;3.00;;;;;;;17.08;100.00;99765.91;5074992;28;20668;-72
2022/09/08 07:19:33;;;;;;;15.65;2.00;;;;;;;17.16;100.00;99760.16;5048947;28;20044;-72
2022/09/08 07:22:07;;;;;;;15.35;2.60;;;;;;;17.26;100.00;99758.81;5057405;28;20029;-72
2022/09/08 07:24:34;;;;;;;17.67;2.88;;;;;;;17.36;100.00;99763.09;5043174;28;20016;-72
2022/09/08 07:27:00;;;;;;;20.25;3.10;;;;;;;17.44;100.00;99759.31;5041249;28;20111;-71
2022/09/08 07:29:29;;;;;;;15.38;2.60;;;;;;;17.54;100.00;99758.78;5058434;28;20024;-70
2022/09/08 07:31:54;;;;;;;15.57;2.75;;;;;;;17.63;100.00;99759.47;5018995;28;20166;-71
2022/09/08 07:34:22;;;;;;;13.00;2.33;;;;;;;17.74;100.00;99762.53;5077696;28;20040;-71
2022/09/08 07:36:59;;;;;;;15.23;2.67;;;;;;;17.86;100.00;99747.63;5096322;28;20020;-71
2022/09/08 07:39:30;;;;;;;12.32;2.40;;;;;;;17.99;100.00;99751.97;5062074;28;20036;-71
2022/09/08 07:41:59;;;;;;;16.90;3.03;;;;;;;18.15;100.00;99759.59;5074898;28;20024;-71
2022/09/08 07:44:24;;;;;;;20.80;3.40;;;;;;;18.30;100.00;99758.75;5060940;28;20024;-71
2022/09/08 07:47:14;;;;;;;17.42;3.03;;;;;;;18.48;100.00;99762.81;5061431;28;20086;-71
2022/09/08 07:50:08;;;;;;;23.30;3.53;;;;;;;18.72;100.00;99758.13;5038654;28;20031;-72
2022/09/08 07:52:57;;;;;;;20.08;3.20;;;;;;;18.90;100.00;99750.94;5076628;28;20055;-72
2022/09/08 07:55:26;;;;;;;21.42;3.58;;;;;;;19.08;100.00;99756.13;5074874;28;20492;-72
2022/09/08 07:57:57;;;;;;;18.15;3.45;;;;;;;19.18;100.00;99753.53;5077517;28;20033;-72
2022/09/08 08:00:35;;;;;;;22.42;3.20;;;;;;;19.28;100.00;99756.94;5095920;28;20036;-72
2022/09/08 08:03:22;;;;;;;19.58;3.40;;;;;;;19.38;99.74;99754.34;5058888;28;20087;-72
2022/09/08 08:05:50;;;;;;;24.60;4.07;;;;;;;19.45;98.73;99753.69;5093453;28;20024;-72
2022/09/08 08:09:13;;;;;;;22.80;3.85;;;;;;;19.54;98.24;99757.06;5041796;28;20040;-72
2022/09/08 08:11:59;;;;;;;15.52;2.92;;;;;;;19.64;97.49;99753.66;4989453;28;20107;-72
2022/09/08 08:14:31;;;;;;;20.05;3.25;;;;;;;19.70;97.69;99759.81;4991288;28;20039;-72
2022/09/08 08:17:15;;;;;;;17.17;3.47;;;;;;;19.74;97.58;99757.06;4986725;28;20045;-72
2022/09/08 08:19:55;;;;;;;25.38;3.47;;;;;;;19.79;96.66;99759.56;4986804;28;20061;-71
2022/09/08 08:22:33;;;;;;;21.48;2.97;;;;;;;19.82;95.83;99761.63;5003566;28;20057;-72
2022/09/08 08:24:58;;;;;;;22.27;3.67;;;;;;;19.82;96.00;99762.44;5003396;28;20120;-71
2022/09/08 08:27:38;;;;;;;18.95;3.33;;;;;;;19.83;95.48;99764.06;5003375;28;20096;-72
2022/09/08 08:30:19;;;;;;;20.55;3.92;;;;;;;19.85;95.21;99763.69;4989680;28;20466;-71
2022/09/08 08:33:00;;;;;;;20.98;3.60;;;;;;;19.86;94.93;99771.78;4985850;28;20034;-71
2022/09/08 08:35:39;;;;;;;20.38;3.40;;;;;;;19.85;95.19;99767.31;4965196;28;20053;-72
2022/09/08 08:38:04;;;;;;;22.02;3.78;;;;;;;19.84;94.81;99770.53;4972941;28;20076;-71
2022/09/08 08:40:56;;;;;;;20.08;3.85;;;;;;;19.88;94.32;99773.41;4980563;28;20039;-71
2022/09/08 08:43:27;;;;;;;18.17;3.58;;;;;;;19.87;94.20;99769.78;5060719;28;20066;-71
2022/09/08 08:46:11;;;;;;;21.40;3.63;;;;;;;19.82;94.65;99762.44;5095378;28;20038;-71
2022/09/08 08:49:02;;;;;;;17.48;3.13;;;;;;;19.88;95.78;99773.41;5055837;28;20089;-72
2022/09/08 08:51:34;;;;;;;19.55;3.60;;;;;;;19.92;96.18;99768.63;5058280;28;20026;-71
2022/09/08 08:54:11;;;;;;;18.60;2.93;;;;;;;20.00;95.33;99776.03;5041170;28;20024;-72
2022/09/08 08:56:57;;;;;;;17.20;3.88;;;;;;;20.11;95.65;99774.22;5059730;28;20036;-72
2022/09/08 08:59:57;;;;;;;22.55;3.42;;;;;;;20.23;94.88;99768.41;5058275;28;20052;-71
2022/09/08 09:02:33;;;;;;;19.58;3.30;;;;;;;20.36;93.84;99773.81;5058704;28;20089;-71
2022/09/08 09:05:18;;;;;;;18.63;2.92;;;;;;;20.46;93.29;99770.38;5063911;28;20043;-72
2022/09/08 09:08:08;;;;;;;19.00;3.42;;;;;;;20.52;92.66;99771.66;5077826;28;20060;-72
2022/09/08 09:11:01;;;;;;;20.67;3.03;;;;;;;20.59;92.80;99783.09;5079408;28;20089;-72
2022/09/08 09:13:45;;;;;;;19.02;2.53;;;;;;;20.64;91.83;99777.09;5077236;28;20040;-72
2022/09/08 09:16:32;;;;;;;21.27;3.25;;;;;;;20.71;91.43;99782.88;5098717;28;20579;-71
2022/09/08 09:19:29;;;;;;;17.98;3.17;;;;;;;20.79;90.50;99786.63;5047140;28;20078;-72
2022/09/08 09:22:16;;;;;;;17.05;2.95;;;;;;;20.90;89.82;99778.31;5079579;28;20039;-72
2022/09/08 09:25:13;;;;;;;18.35;3.22;;;;;;;20.99;90.00;99778.84;5096614;28;20567;-72
2022/09/08 09:27:43;;;;;;;17.02;2.75;;;;;;;21.09;90.19;99774.50;5046747;28;20046;-72
2022/09/08 09:30:12;;;;;;;11.75;2.42;;;;;;;21.20;89.50;99775.47;5060894;28;20045;-72
2022/09/08 09:32:43;;;;;;;19.17;3.50;;;;;;;21.36;90.82;99775.25;5094600;28;20057;-72
2022/09/08 09:35:30;;;;;;;13.90;2.45;;;;;;;21.55;91.69;99772.28;5063194;28;20032;-71
2022/09/08 09:38:10;;;;;;;18.98;2.80;;;;;;;21.74;88.97;99773.31;5052142;28;20036;-71
2022/09/08 09:41:06;;;;;;;16.98;2.95;;;;;;;21.98;87.45;99772.75;5079899;28;20032;-71
2022/09/08 09:43:51;;;;;;;12.45;2.00;;;;;;;22.19;85.42;99772.16;5097655;28;20036;-72
2022/09/08 09:46:39;;;;;;;16.08;2.40;;;;;;;22.37;83.70;99780.81;5065805;28;20039;-72
2022/09/08 09:49:23;;;;;;;9.95;2.25;;;;;;;22.53;81.72;99777.66;5058541;28;20039;-72
2022/09/08 09:52:17;;;;;;;13.32;2.40;;;;;;;22.61;79.54;99787.03;5044377;28;20031;-72
2022/09/08 09:54:51;;;;;;;11.63;2.00;;;;;;;22.72;77.99;99783.06;5097359;28;20181;-72
2022/09/08 09:57:54;;;;;;;10.23;1.98;;;;;;;22.81;77.13;99779.88;5059912;28;20055;-72
2022/09/08 10:00:28;;;;;;;12.50;1.88;;;;;;;22.90;76.23;99785.19;5057880;28;20040;-71
2022/09/08 10:03:31;;;;;;;15.80;2.58;;;;;;;22.97;75.83;99783.25;5056914;28;20021;-72
2022/09/08 10:06:24;;;;;;;11.23;1.95;;;;;;;23.02;74.79;99789.75;5096618;28;20059;-71
2022/09/08 10:08:54;;;;;;;12.02;2.45;;;;;;;23.10;74.59;99785.75;5058548;28;20606;-72
2022/09/08 10:11:25;;;;;;;12.38;2.47;;;;;;;23.13;74.83;99788.59;5079521;28;20392;-72
2022/09/08 10:14:28;;;;;;;14.10;2.70;;;;;;;23.19;74.52;99783.38;5097860;28;20039;-72
2022/09/08 10:17:12;;;;;;;12.98;2.38;;;;;;;23.21;73.06;99778.13;5076328;28;20539;-71
2022/09/08 10:19:37;;;;;;;11.57;2.20;;;;;;;23.20;72.07;99770.81;5077766;28;20063;-72
2022/09/08 10:22:37;;;;;;;11.77;2.10;;;;;;;23.23;73.62;99770.03;5097498;28;20115;-72
2022/09/08 10:25:21;;;;;;;11.75;2.88;;;;;;;23.29;74.09;99778.94;5078779;28;20031;-72
2022/09/08 10:28:06;;;;;;;16.33;1.95;;;;;;;23.39;73.62;99775.34;5079102;28;20043;-72
2022/09/08 10:31:09;;;;;;;14.45;2.42;;;;;;;23.48;73.46;99769.31;5060196;28;20036;-72
2022/09/08 10:33:34;;;;;;;;;;;;;;;23.60;73.56;99774.63;5096120;28;20028;-71
2022/09/08 10:36:06;;;;;;;10.30;2.37;;;;;;;23.67;72.92;99771.00;5079119;28;19912;-71
2022/09/08 10:38:57;;;;;;;13.57;2.45;;;;;;;23.70;70.96;99771.00;5096215;28;20760;-72
2022/09/08 10:41:34;;;;;;;11.18;1.90;;;;;;;23.80;71.78;99780.78;5062239;28;20028;-71
2022/09/08 10:44:38;;;;;;;16.33;2.70;;;;;;;23.89;71.80;99767.00;5062118;28;20032;-71
2022/09/08 10:47:24;;;;;;;11.13;2.55;;;;;;;23.98;72.25;99770.25;5062059;28;20020;-72
2022/09/08 10:50:08;;;;;;;14.40;2.85;;;;;;;24.09;69.41;99762.56;5058136;28;20040;-72
2022/09/08 10:52:59;;;;;;;13.85;2.55;;;;;;;24.20;69.22;99767.44;5074411;28;20553;-72
2022/09/08 10:55:55;;;;;;;14.75;2.40;;;;;;;24.27;70.07;99761.78;5092060;28;20028;-71
2022/09/08 10:58:45;;;;;;;13.65;2.50;;;;;;;24.33;67.38;99767.88;5055493;28;20055;-71
2022/09/08 11:01:39;;;;;;;15.07;2.75;;;;;;;24.39;66.88;99775.56;5094331;28;20028;-72
2022/09/08 11:04:17;;;;;;;11.48;2.45;;;;;;;24.46;67.47;99757.72;5061698;28;20088;-71
2022/09/08 11:07:05;;;;;;;12.52;2.40;;;;;;;24.45;66.19;99773.97;5075887;28;20040;-71
2022/09/08 11:09:45;;;;;;;14.13;2.25;;;;;;;24.47;70.58;99776.41;5074861;28;20036;-71
2022/09/08 11:12:26;;;;;;;15.20;2.17;;;;;;;24.42;70.02;99779.63;5078030;28;20070;-71
2022/09/08 11:15:00;;;;;;;15.73;2.60;;;;;;;24.28;71.03;99781.22;5076227;28;20044;-71
2022/09/08 11:17:26;;;;;;;20.67;2.70;;;;;;;24.07;71.88;99782.03;5078389;28;20040;-72
2022/09/08 11:20:02;;;;;;;28.02;3.30;;;;;;;23.84;72.18;99781.59;5044839;28;20036;-71
2022/09/08 11:22:33;;;;;;;26.27;2.63;;;;;;;23.62;72.95;99777.84;5062828;28;20038;-71
2022/09/08 11:25:33;;;;;;;16.23;2.30;;;;;;;23.39;75.02;99787.50;5059456;28;20038;-71
2022/09/08 11:28:02;;;;;;;13.88;2.88;;;;;;;23.18;77.17;99787.41;5077400;28;20027;-71
2022/09/08 11:30:44;;;;;;;8.77;2.03;;;;;;;22.96;81.37;99786.50;5087869;28;20129;-71
2022/09/08 11:33:18;;;;;;;10.25;2.20;;;;;;;22.87;81.52;99778.31;5042559;28;20124;-71
2022/09/08 11:36:06;;;;;;;13.50;2.15;;;;;;;22.73;82.54;99781.03;5059193;28;20024;-71
2022/09/08 11:39:09;;;;;;;18.17;2.85;;;;;;;22.68;86.46;99778.59;5053014;28;20032;-71
2022/09/08 11:41:46;;;;;;;17.73;2.50;;;;;;;22.64;85.52;99770.06;5093788;28;20043;-71
2022/09/08 11:44:21;;;;;;;11.18;1.90;;;;;;;22.67;87.36;99774.94;5077859;28;20039;-71
2022/09/08 11:47:03;;;;;;;11.60;2.05;;;;;;;22.73;86.72;99766.88;5059039;28;20517;-71
2022/09/08 11:50:13;;;;;;;9.70;2.03;;;;;;;22.80;86.03;99772.59;5056940;28;20036;-71
2022/09/08 11:52:41;;;;;;;12.95;2.53;;;;;;;22.87;85.10;99775.50;5073497;28;20465;-71
2022/09/08 11:55:32;;;;;;;11.25;2.25;;;;;;;22.90;83.82;99766.22;5074904;28;20071;-71